sensor_id;sensor_type;location;lat;lon;timestamp;temperature;humidity
31991;DHT22;18508;49.386;8.370;2023-04-25T00:01:20;9.90;99.90
31991;DHT22;18508;49.386;8.370;2023-04-25T00:03:49;9.80;99.90
31991;DHT22;18508;49.386;8.370;2023-04-25T00:06:20;9.90;99.90
31991;DHT22;18508;49.386;8.370;2023-04-25T00:08:50;9.90;99.90
31991;DHT22;18508;49.386;8.370;2023-04-25T00:11:19;9.80;99.90
31991;DHT22;18508;49.386;8.370;2023-04-25T00:13:47;9.90;99.90
31991;DHT22;18508;49.386;8.370;2023-04-25T00:16:16;9.80;99.90
31991;DHT22;18508;49.386;8.370;2023-04-25T00:18:45;9.90;99.90
31991;DHT22;18508;49.386;8.370;2023-04-25T00:21:18;9.80;99.90
31991;DHT22;18508;49.386;8.370;2023-04-25T00:23:46;9.90;99.90
31991;DHT22;18508;49.386;8.370;2023-04-25T00:26:18;9.90;99.90
31991;DHT22;18508;49.386;8.370;2023-04-25T00:28:47;9.90;99.90
31991;DHT22;18508;49.386;8.370;2023-04-25T00:31:16;9.90;99.90
31991;DHT22;18508;49.386;8.370;2023-04-25T00:33:44;9.90;99.90
31991;DHT22;18508;49.386;8.370;2023-04-25T00:36:13;9.90;99.90
31991;DHT22;18508;49.386;8.370;2023-04-25T00:38:42;10.00;99.90
31991;DHT22;18508;49.386;8.370;2023-04-25T00:41:10;10.00;99.90
31991;DHT22;18508;49.386;8.370;2023-04-25T00:43:40;9.90;99.90
31991;DHT22;18508;49.386;8.370;2023-04-25T00:46:08;9.90;99.90
31991;DHT22;18508;49.386;8.370;2023-04-25T00:48:36;9.90;99.90
31991;DHT22;18508;49.386;8.370;2023-04-25T00:51:04;9.80;99.90
31991;DHT22;18508;49.386;8.370;2023-04-25T00:53:33;9.70;99.90
31991;DHT22;18508;49.386;8.370;2023-04-25T00:56:02;9.70;99.90
31991;DHT22;18508;49.386;8.370;2023-04-25T00:58:31;9.70;99.90
31991;DHT22;18508;49.386;8.370;2023-04-25T01:01:01;9.50;99.90
31991;DHT22;18508;49.386;8.370;2023-04-25T01:03:31;9.60;99.90
31991;DHT22;18508;49.386;8.370;2023-04-25T01:06:03;9.50;99.90
31991;DHT22;18508;49.386;8.370;2023-04-25T01:08:31;9.50;99.90
31991;DHT22;18508;49.386;8.370;2023-04-25T01:10:59;9.50;99.90
31991;DHT22;18508;49.386;8.370;2023-04-25T01:13:28;9.50;99.90
31991;DHT22;18508;49.386;8.370;2023-04-25T01:15:56;9.40;99.90
31991;DHT22;18508;49.386;8.370;2023-04-25T01:18:26;9.40;99.90
31991;DHT22;18508;49.386;8.370;2023-04-25T01:21:06;9.40;99.90
31991;DHT22;18508;49.386;8.370;2023-04-25T01:23:35;9.40;99.90
31991;DHT22;18508;49.386;8.370;2023-04-25T01:26:03;9.40;99.90
31991;DHT22;18508;49.386;8.370;2023-04-25T01:28:33;9.30;99.90
31991;DHT22;18508;49.386;8.370;2023-04-25T01:31:02;9.30;99.90
31991;DHT22;18508;49.386;8.370;2023-04-25T01:33:30;9.30;99.90
31991;DHT22;18508;49.386;8.370;2023-04-25T01:35:59;9.30;99.90
31991;DHT22;18508;49.386;8.370;2023-04-25T01:38:28;9.30;99.90
31991;DHT22;18508;49.386;8.370;2023-04-25T01:40:58;9.30;99.90
31991;DHT22;18508;49.386;8.370;2023-04-25T01:43:28;9.30;99.90
31991;DHT22;18508;49.386;8.370;2023-04-25T01:45:57;9.30;99.90
31991;DHT22;18508;49.386;8.370;2023-04-25T01:48:25;9.30;99.90
31991;DHT22;18508;49.386;8.370;2023-04-25T01:50:57;9.30;99.90
31991;DHT22;18508;49.386;8.370;2023-04-25T01:53:27;9.30;99.90
31991;DHT22;18508;49.386;8.370;2023-04-25T01:55:55;9.30;99.90
31991;DHT22;18508;49.386;8.370;2023-04-25T01:58:23;9.30;99.90
31991;DHT22;18508;49.386;8.370;2023-04-25T02:00:51;9.30;99.90
31991;DHT22;18508;49.386;8.370;2023-04-25T02:03:19;9.30;99.90
31991;DHT22;18508;49.386;8.370;2023-04-25T02:05:49;9.30;99.90
31991;DHT22;18508;49.386;8.370;2023-04-25T02:08:17;9.30;99.90
31991;DHT22;18508;49.386;8.370;2023-04-25T02:10:47;9.30;99.90
31991;DHT22;18508;49.386;8.370;2023-04-25T02:13:15;9.30;99.90
31991;DHT22;18508;49.386;8.370;2023-04-25T02:15:44;9.30;99.90
31991;DHT22;18508;49.386;8.370;2023-04-25T02:18:12;9.30;99.90
31991;DHT22;18508;49.386;8.370;2023-04-25T02:20:42;9.30;99.90
31991;DHT22;18508;49.386;8.370;2023-04-25T02:23:11;9.20;99.90
31991;DHT22;18508;49.386;8.370;2023-04-25T02:25:39;9.20;99.90
31991;DHT22;18508;49.386;8.370;2023-04-25T02:28:10;9.10;99.90
31991;DHT22;18508;49.386;8.370;2023-04-25T02:30:39;9.10;99.90
31991;DHT22;18508;49.386;8.370;2023-04-25T02:33:07;9.10;99.90
31991;DHT22;18508;49.386;8.370;2023-04-25T02:35:37;9.00;99.90
31991;DHT22;18508;49.386;8.370;2023-04-25T02:38:06;9.10;99.90
31991;DHT22;18508;49.386;8.370;2023-04-25T02:40:35;9.00;99.90
31991;DHT22;18508;49.386;8.370;2023-04-25T02:43:03;9.60;99.90
31991;DHT22;18508;49.386;8.370;2023-04-25T02:45:36;8.90;99.90
31991;DHT22;18508;49.386;8.370;2023-04-25T02:48:05;9.00;99.90
31991;DHT22;18508;49.386;8.370;2023-04-25T02:50:34;8.90;99.90
31991;DHT22;18508;49.386;8.370;2023-04-25T02:53:02;8.90;99.90
31991;DHT22;18508;49.386;8.370;2023-04-25T02:55:30;9.00;99.90
31991;DHT22;18508;49.386;8.370;2023-04-25T02:57:59;8.80;99.90
31991;DHT22;18508;49.386;8.370;2023-04-25T03:00:28;8.80;99.90
31991;DHT22;18508;49.386;8.370;2023-04-25T03:02:58;8.70;99.90
31991;DHT22;18508;49.386;8.370;2023-04-25T03:05:26;8.70;99.90
31991;DHT22;18508;49.386;8.370;2023-04-25T03:07:54;8.70;99.90
31991;DHT22;18508;49.386;8.370;2023-04-25T03:10:23;8.80;99.90
31991;DHT22;18508;49.386;8.370;2023-04-25T03:12:52;8.90;99.90
31991;DHT22;18508;49.386;8.370;2023-04-25T03:15:20;8.70;99.90
31991;DHT22;18508;49.386;8.370;2023-04-25T03:17:48;8.70;99.90
31991;DHT22;18508;49.386;8.370;2023-04-25T03:20:18;8.60;99.90
31991;DHT22;18508;49.386;8.370;2023-04-25T03:22:46;8.60;99.90
31991;DHT22;18508;49.386;8.370;2023-04-25T03:25:15;8.50;99.90
31991;DHT22;18508;49.386;8.370;2023-04-25T03:27:43;8.50;99.90
31991;DHT22;18508;49.386;8.370;2023-04-25T03:30:12;8.50;99.90
31991;DHT22;18508;49.386;8.370;2023-04-25T03:32:40;8.50;99.90
31991;DHT22;18508;49.386;8.370;2023-04-25T03:35:08;8.50;99.90
31991;DHT22;18508;49.386;8.370;2023-04-25T03:37:38;8.40;99.90
31991;DHT22;18508;49.386;8.370;2023-04-25T03:40:08;8.40;99.90
31991;DHT22;18508;49.386;8.370;2023-04-25T03:42:36;8.40;99.90
31991;DHT22;18508;49.386;8.370;2023-04-25T03:45:05;8.40;99.90
31991;DHT22;18508;49.386;8.370;2023-04-25T03:47:33;8.40;99.90
31991;DHT22;18508;49.386;8.370;2023-04-25T03:50:03;8.40;99.90
31991;DHT22;18508;49.386;8.370;2023-04-25T03:52:32;8.50;99.90
31991;DHT22;18508;49.386;8.370;2023-04-25T03:55:01;8.40;99.90
31991;DHT22;18508;49.386;8.370;2023-04-25T03:57:31;8.40;99.90
31991;DHT22;18508;49.386;8.370;2023-04-25T03:59:59;8.40;99.90
31991;DHT22;18508;49.386;8.370;2023-04-25T04:02:27;8.50;99.90
31991;DHT22;18508;49.386;8.370;2023-04-25T04:04:57;8.50;99.90
31991;DHT22;18508;49.386;8.370;2023-04-25T04:07:26;8.50;99.90
31991;DHT22;18508;49.386;8.370;2023-04-25T04:09:54;8.60;99.90
31991;DHT22;18508;49.386;8.370;2023-04-25T04:12:24;8.60;99.90
31991;DHT22;18508;49.386;8.370;2023-04-25T04:14:52;8.50;99.90
31991;DHT22;18508;49.386;8.370;2023-04-25T04:17:20;8.60;99.90
31991;DHT22;18508;49.386;8.370;2023-04-25T04:19:48;8.60;99.90
31991;DHT22;18508;49.386;8.370;2023-04-25T04:22:20;8.60;99.90
31991;DHT22;18508;49.386;8.370;2023-04-25T04:24:49;8.60;99.90
31991;DHT22;18508;49.386;8.370;2023-04-25T04:27:19;8.60;99.90
31991;DHT22;18508;49.386;8.370;2023-04-25T04:29:49;8.60;99.90
31991;DHT22;18508;49.386;8.370;2023-04-25T04:32:18;8.60;99.90
31991;DHT22;18508;49.386;8.370;2023-04-25T04:34:47;8.60;99.90
31991;DHT22;18508;49.386;8.370;2023-04-25T04:37:15;8.60;99.90
31991;DHT22;18508;49.386;8.370;2023-04-25T04:39:45;8.60;99.90
31991;DHT22;18508;49.386;8.370;2023-04-25T04:42:13;8.60;99.90
31991;DHT22;18508;49.386;8.370;2023-04-25T04:44:42;8.70;99.90
31991;DHT22;18508;49.386;8.370;2023-04-25T04:47:12;8.70;99.90
31991;DHT22;18508;49.386;8.370;2023-04-25T04:49:41;8.70;99.90
31991;DHT22;18508;49.386;8.370;2023-04-25T04:52:09;8.80;99.90
31991;DHT22;18508;49.386;8.370;2023-04-25T04:54:39;8.90;99.90
31991;DHT22;18508;49.386;8.370;2023-04-25T04:57:07;8.90;99.90
31991;DHT22;18508;49.386;8.370;2023-04-25T04:59:35;8.90;99.90
31991;DHT22;18508;49.386;8.370;2023-04-25T05:02:03;8.90;99.90
31991;DHT22;18508;49.386;8.370;2023-04-25T05:04:33;8.90;99.90
31991;DHT22;18508;49.386;8.370;2023-04-25T05:07:02;9.00;99.90
31991;DHT22;18508;49.386;8.370;2023-04-25T05:09:30;9.00;99.90
31991;DHT22;18508;49.386;8.370;2023-04-25T05:11:59;9.10;99.90
31991;DHT22;18508;49.386;8.370;2023-04-25T05:14:29;9.10;99.90
31991;DHT22;18508;49.386;8.370;2023-04-25T05:16:57;9.20;99.90
31991;DHT22;18508;49.386;8.370;2023-04-25T05:19:26;9.20;99.90
31991;DHT22;18508;49.386;8.370;2023-04-25T05:21:56;9.30;99.90
31991;DHT22;18508;49.386;8.370;2023-04-25T05:24:24;9.90;99.90
31991;DHT22;18508;49.386;8.370;2023-04-25T05:26:52;9.30;99.90
31991;DHT22;18508;49.386;8.370;2023-04-25T05:29:20;9.30;99.90
31991;DHT22;18508;49.386;8.370;2023-04-25T05:31:48;9.40;99.90
31991;DHT22;18508;49.386;8.370;2023-04-25T05:34:17;9.40;99.90
31991;DHT22;18508;49.386;8.370;2023-04-25T05:36:46;9.50;99.90
31991;DHT22;18508;49.386;8.370;2023-04-25T05:39:19;9.50;99.90
31991;DHT22;18508;49.386;8.370;2023-04-25T05:41:48;9.50;99.90
31991;DHT22;18508;49.386;8.370;2023-04-25T05:44:16;9.60;99.90
31991;DHT22;18508;49.386;8.370;2023-04-25T05:46:44;9.50;99.90
31991;DHT22;18508;49.386;8.370;2023-04-25T05:49:12;9.50;99.90
31991;DHT22;18508;49.386;8.370;2023-04-25T05:51:43;9.40;99.90
31991;DHT22;18508;49.386;8.370;2023-04-25T05:54:12;9.40;99.90
31991;DHT22;18508;49.386;8.370;2023-04-25T05:56:42;9.50;99.90
31991;DHT22;18508;49.386;8.370;2023-04-25T05:59:11;9.50;99.90
31991;DHT22;18508;49.386;8.370;2023-04-25T06:01:39;9.60;99.90
31991;DHT22;18508;49.386;8.370;2023-04-25T06:04:07;9.60;99.90
31991;DHT22;18508;49.386;8.370;2023-04-25T06:06:37;9.60;99.90
31991;DHT22;18508;49.386;8.370;2023-04-25T06:09:05;9.50;99.90
31991;DHT22;18508;49.386;8.370;2023-04-25T06:11:33;9.50;99.90
31991;DHT22;18508;49.386;8.370;2023-04-25T06:14:05;9.50;99.90
31991;DHT22;18508;49.386;8.370;2023-04-25T06:16:35;9.50;99.90
31991;DHT22;18508;49.386;8.370;2023-04-25T06:19:03;9.60;99.90
31991;DHT22;18508;49.386;8.370;2023-04-25T06:21:31;9.70;99.90
31991;DHT22;18508;49.386;8.370;2023-04-25T06:24:00;9.70;99.90
31991;DHT22;18508;49.386;8.370;2023-04-25T06:26:28;9.80;99.90
31991;DHT22;18508;49.386;8.370;2023-04-25T06:28:56;9.80;99.90
31991;DHT22;18508;49.386;8.370;2023-04-25T06:31:25;9.90;99.90
31991;DHT22;18508;49.386;8.370;2023-04-25T06:33:56;9.80;99.90
31991;DHT22;18508;49.386;8.370;2023-04-25T06:36:25;9.80;99.90
31991;DHT22;18508;49.386;8.370;2023-04-25T06:38:54;9.80;99.90
31991;DHT22;18508;49.386;8.370;2023-04-25T06:41:22;10.00;99.90
31991;DHT22;18508;49.386;8.370;2023-04-25T06:43:50;10.00;99.90
31991;DHT22;18508;49.386;8.370;2023-04-25T06:46:18;9.90;99.90
31991;DHT22;18508;49.386;8.370;2023-04-25T06:48:48;9.90;99.90
31991;DHT22;18508;49.386;8.370;2023-04-25T06:51:19;9.90;99.90
31991;DHT22;18508;49.386;8.370;2023-04-25T06:53:50;9.90;99.90
31991;DHT22;18508;49.386;8.370;2023-04-25T06:56:19;9.90;99.90
31991;DHT22;18508;49.386;8.370;2023-04-25T06:58:50;10.00;99.90
31991;DHT22;18508;49.386;8.370;2023-04-25T07:01:18;10.00;99.90
31991;DHT22;18508;49.386;8.370;2023-04-25T07:03:48;10.20;99.90
31991;DHT22;18508;49.386;8.370;2023-04-25T07:06:16;10.20;99.90
31991;DHT22;18508;49.386;8.370;2023-04-25T07:08:45;10.20;99.90
31991;DHT22;18508;49.386;8.370;2023-04-25T07:11:13;10.20;99.90
31991;DHT22;18508;49.386;8.370;2023-04-25T07:13:41;10.20;99.90
31991;DHT22;18508;49.386;8.370;2023-04-25T07:16:10;10.30;99.90
31991;DHT22;18508;49.386;8.370;2023-04-25T07:18:38;10.40;99.90
31991;DHT22;18508;49.386;8.370;2023-04-25T07:21:10;10.40;99.90
31991;DHT22;18508;49.386;8.370;2023-04-25T07:23:38;10.20;99.90
31991;DHT22;18508;49.386;8.370;2023-04-25T07:26:07;10.10;99.90
31991;DHT22;18508;49.386;8.370;2023-04-25T07:28:36;9.90;99.90
31991;DHT22;18508;49.386;8.370;2023-04-25T07:31:04;9.60;1.00
31991;DHT22;18508;49.386;8.370;2023-04-25T07:33:33;9.60;1.00
31991;DHT22;18508;49.386;8.370;2023-04-25T07:36:01;9.60;1.00
31991;DHT22;18508;49.386;8.370;2023-04-25T07:38:31;9.50;1.00
31991;DHT22;18508;49.386;8.370;2023-04-25T07:40:59;9.30;1.00
31991;DHT22;18508;49.386;8.370;2023-04-25T07:43:27;9.50;1.00
31991;DHT22;18508;49.386;8.370;2023-04-25T07:45:56;9.50;1.00
31991;DHT22;18508;49.386;8.370;2023-04-25T07:48:24;9.50;1.00
31991;DHT22;18508;49.386;8.370;2023-04-25T07:50:53;9.50;2.30
31991;DHT22;18508;49.386;8.370;2023-04-25T07:53:21;9.60;1.00
31991;DHT22;18508;49.386;8.370;2023-04-25T07:55:51;9.60;1.00
31991;DHT22;18508;49.386;8.370;2023-04-25T07:58:19;9.50;1.00
31991;DHT22;18508;49.386;8.370;2023-04-25T08:00:49;9.50;1.00
31991;DHT22;18508;49.386;8.370;2023-04-25T08:03:17;9.60;36.70
31991;DHT22;18508;49.386;8.370;2023-04-25T08:05:46;9.60;99.90
31991;DHT22;18508;49.386;8.370;2023-04-25T08:08:15;9.60;1.00
31991;DHT22;18508;49.386;8.370;2023-04-25T08:10:43;9.40;1.00
31991;DHT22;18508;49.386;8.370;2023-04-25T08:13:13;9.40;1.00
31991;DHT22;18508;49.386;8.370;2023-04-25T08:15:41;9.50;99.90
31991;DHT22;18508;49.386;8.370;2023-04-25T08:18:10;9.50;99.90
31991;DHT22;18508;49.386;8.370;2023-04-25T08:20:41;9.50;99.90
31991;DHT22;18508;49.386;8.370;2023-04-25T08:23:09;9.40;10.80
31991;DHT22;18508;49.386;8.370;2023-04-25T08:25:37;9.40;1.00
31991;DHT22;18508;49.386;8.370;2023-04-25T08:28:05;9.50;1.00
31991;DHT22;18508;49.386;8.370;2023-04-25T08:30:36;9.70;1.00
31991;DHT22;18508;49.386;8.370;2023-04-25T08:33:04;9.80;99.90
31991;DHT22;18508;49.386;8.370;2023-04-25T08:35:33;9.90;99.90
31991;DHT22;18508;49.386;8.370;2023-04-25T08:38:02;10.10;1.00
31991;DHT22;18508;49.386;8.370;2023-04-25T08:40:37;10.10;99.90
31991;DHT22;18508;49.386;8.370;2023-04-25T08:43:07;10.10;99.90
31991;DHT22;18508;49.386;8.370;2023-04-25T08:45:41;10.10;1.00
31991;DHT22;18508;49.386;8.370;2023-04-25T08:48:11;10.40;99.90
31991;DHT22;18508;49.386;8.370;2023-04-25T08:50:40;10.50;1.00
31991;DHT22;18508;49.386;8.370;2023-04-25T08:53:12;10.50;1.00
31991;DHT22;18508;49.386;8.370;2023-04-25T08:55:46;10.50;99.90
31991;DHT22;18508;49.386;8.370;2023-04-25T08:58:14;10.50;99.90
31991;DHT22;18508;49.386;8.370;2023-04-25T09:00:46;10.50;99.90
31991;DHT22;18508;49.386;8.370;2023-04-25T09:03:14;10.70;1.00
31991;DHT22;18508;49.386;8.370;2023-04-25T09:05:43;10.70;1.00
31991;DHT22;18508;49.386;8.370;2023-04-25T09:08:12;10.80;99.90
31991;DHT22;18508;49.386;8.370;2023-04-25T09:10:40;11.40;99.90
31991;DHT22;18508;49.386;8.370;2023-04-25T09:13:10;11.30;99.90
31991;DHT22;18508;49.386;8.370;2023-04-25T09:15:49;11.30;99.90
31991;DHT22;18508;49.386;8.370;2023-04-25T09:18:25;11.40;1.00
31991;DHT22;18508;49.386;8.370;2023-04-25T09:20:58;11.20;99.90
31991;DHT22;18508;49.386;8.370;2023-04-25T09:23:40;11.20;91.60
31991;DHT22;18508;49.386;8.370;2023-04-25T09:26:09;11.10;99.90
31991;DHT22;18508;49.386;8.370;2023-04-25T09:28:37;11.10;99.90
31991;DHT22;18508;49.386;8.370;2023-04-25T09:31:09;11.30;99.90
31991;DHT22;18508;49.386;8.370;2023-04-25T09:33:40;11.20;99.90
31991;DHT22;18508;49.386;8.370;2023-04-25T09:36:09;11.50;1.00
31991;DHT22;18508;49.386;8.370;2023-04-25T09:38:41;11.60;55.00
31991;DHT22;18508;49.386;8.370;2023-04-25T09:41:10;11.50;1.00
31991;DHT22;18508;49.386;8.370;2023-04-25T09:43:39;11.60;99.90
31991;DHT22;18508;49.386;8.370;2023-04-25T09:46:10;11.80;1.00
31991;DHT22;18508;49.386;8.370;2023-04-25T09:48:39;11.90;99.90
31991;DHT22;18508;49.386;8.370;2023-04-25T09:51:09;11.70;47.20
31991;DHT22;18508;49.386;8.370;2023-04-25T09:53:39;11.70;99.90
31991;DHT22;18508;49.386;8.370;2023-04-25T09:56:11;11.50;99.90
31991;DHT22;18508;49.386;8.370;2023-04-25T09:58:40;11.30;61.50
31991;DHT22;18508;49.386;8.370;2023-04-25T10:01:11;11.30;99.90
31991;DHT22;18508;49.386;8.370;2023-04-25T10:03:40;11.30;99.90
31991;DHT22;18508;49.386;8.370;2023-04-25T10:06:12;11.40;99.90
31991;DHT22;18508;49.386;8.370;2023-04-25T10:08:43;11.40;1.00
31991;DHT22;18508;49.386;8.370;2023-04-25T10:11:12;11.50;98.90
31991;DHT22;18508;49.386;8.370;2023-04-25T10:13:43;11.70;1.00
31991;DHT22;18508;49.386;8.370;2023-04-25T10:16:13;11.60;11.40
31991;DHT22;18508;49.386;8.370;2023-04-25T10:18:41;11.60;1.00
31991;DHT22;18508;49.386;8.370;2023-04-25T10:21:10;12.00;1.00
31991;DHT22;18508;49.386;8.370;2023-04-25T10:23:38;12.10;1.00
31991;DHT22;18508;49.386;8.370;2023-04-25T10:26:08;12.40;1.00
31991;DHT22;18508;49.386;8.370;2023-04-25T10:28:57;12.40;1.00
31991;DHT22;18508;49.386;8.370;2023-04-25T10:31:27;12.50;1.00
31991;DHT22;18508;49.386;8.370;2023-04-25T10:33:58;12.50;1.00
31991;DHT22;18508;49.386;8.370;2023-04-25T10:36:31;12.40;1.00
31991;DHT22;18508;49.386;8.370;2023-04-25T10:39:03;11.90;99.90
31991;DHT22;18508;49.386;8.370;2023-04-25T10:41:52;11.70;99.90
31991;DHT22;18508;49.386;8.370;2023-04-25T10:44:20;11.70;99.90
31991;DHT22;18508;49.386;8.370;2023-04-25T10:46:51;11.50;99.90
31991;DHT22;18508;49.386;8.370;2023-04-25T10:49:30;11.40;99.90
31991;DHT22;18508;49.386;8.370;2023-04-25T10:52:16;11.10;1.00
31991;DHT22;18508;49.386;8.370;2023-04-25T10:54:51;11.10;53.10
31991;DHT22;18508;49.386;8.370;2023-04-25T10:57:36;11.00;1.00
31991;DHT22;18508;49.386;8.370;2023-04-25T11:00:08;11.00;1.00
31991;DHT22;18508;49.386;8.370;2023-04-25T11:02:41;11.30;99.90
31991;DHT22;18508;49.386;8.370;2023-04-25T11:05:29;11.40;99.90
31991;DHT22;18508;49.386;8.370;2023-04-25T11:08:00;11.80;13.20
31991;DHT22;18508;49.386;8.370;2023-04-25T11:10:34;12.00;99.90
31991;DHT22;18508;49.386;8.370;2023-04-25T11:13:03;12.30;1.00
31991;DHT22;18508;49.386;8.370;2023-04-25T11:15:32;12.50;1.00
31991;DHT22;18508;49.386;8.370;2023-04-25T11:18:04;12.80;1.00
31991;DHT22;18508;49.386;8.370;2023-04-25T11:20:34;12.70;1.00
31991;DHT22;18508;49.386;8.370;2023-04-25T11:23:02;12.80;99.90
31991;DHT22;18508;49.386;8.370;2023-04-25T11:25:35;12.60;1.00
31991;DHT22;18508;49.386;8.370;2023-04-25T11:28:04;12.80;1.00
31991;DHT22;18508;49.386;8.370;2023-04-25T11:30:32;12.70;99.90
31991;DHT22;18508;49.386;8.370;2023-04-25T11:33:01;12.30;99.90
31991;DHT22;18508;49.386;8.370;2023-04-25T11:35:31;12.30;99.90
31991;DHT22;18508;49.386;8.370;2023-04-25T11:38:01;12.20;1.00
31991;DHT22;18508;49.386;8.370;2023-04-25T11:43:00;12.00;1.00
31991;DHT22;18508;49.386;8.370;2023-04-25T11:45:29;12.00;1.00
31991;DHT22;18508;49.386;8.370;2023-04-25T11:47:57;12.10;1.00
31991;DHT22;18508;49.386;8.370;2023-04-25T11:50:28;12.20;1.00
31991;DHT22;18508;49.386;8.370;2023-04-25T11:52:57;12.40;1.00
31991;DHT22;18508;49.386;8.370;2023-04-25T11:55:26;12.60;1.00
31991;DHT22;18508;49.386;8.370;2023-04-25T11:58:00;12.50;1.00
31991;DHT22;18508;49.386;8.370;2023-04-25T12:00:29;12.50;99.90
31991;DHT22;18508;49.386;8.370;2023-04-25T12:02:57;12.30;1.00
31991;DHT22;18508;49.386;8.370;2023-04-25T12:05:28;12.20;1.00
31991;DHT22;18508;49.386;8.370;2023-04-25T12:08:11;12.20;1.00
31991;DHT22;18508;49.386;8.370;2023-04-25T12:10:41;12.30;1.00
31991;DHT22;18508;49.386;8.370;2023-04-25T12:13:23;12.50;99.90
31991;DHT22;18508;49.386;8.370;2023-04-25T12:15:54;12.80;99.90
31991;DHT22;18508;49.386;8.370;2023-04-25T12:18:24;12.60;99.90
31991;DHT22;18508;49.386;8.370;2023-04-25T12:20:54;12.40;1.00
31991;DHT22;18508;49.386;8.370;2023-04-25T12:23:27;12.30;1.00
31991;DHT22;18508;49.386;8.370;2023-04-25T12:25:57;12.30;1.00
31991;DHT22;18508;49.386;8.370;2023-04-25T12:28:25;12.30;1.00
31991;DHT22;18508;49.386;8.370;2023-04-25T12:30:56;12.40;1.00
31991;DHT22;18508;49.386;8.370;2023-04-25T12:33:26;12.40;1.00
31991;DHT22;18508;49.386;8.370;2023-04-25T12:35:55;12.70;1.00
31991;DHT22;18508;49.386;8.370;2023-04-25T12:38:25;12.80;99.90
31991;DHT22;18508;49.386;8.370;2023-04-25T12:40:55;12.90;99.90
31991;DHT22;18508;49.386;8.370;2023-04-25T12:43:23;13.10;99.90
31991;DHT22;18508;49.386;8.370;2023-04-25T12:45:53;13.30;99.90
31991;DHT22;18508;49.386;8.370;2023-04-25T12:48:22;13.30;99.90
31991;DHT22;18508;49.386;8.370;2023-04-25T12:50:51;13.30;99.90
31991;DHT22;18508;49.386;8.370;2023-04-25T12:53:21;13.30;99.90
31991;DHT22;18508;49.386;8.370;2023-04-25T12:55:50;13.50;99.90
31991;DHT22;18508;49.386;8.370;2023-04-25T12:58:20;13.60;99.90
31991;DHT22;18508;49.386;8.370;2023-04-25T13:00:50;13.30;99.90
31991;DHT22;18508;49.386;8.370;2023-04-25T13:03:19;13.10;99.90
31991;DHT22;18508;49.386;8.370;2023-04-25T13:05:48;13.20;99.90
31991;DHT22;18508;49.386;8.370;2023-04-25T13:08:17;13.20;99.90
31991;DHT22;18508;49.386;8.370;2023-04-25T13:10:45;13.50;99.90
31991;DHT22;18508;49.386;8.370;2023-04-25T13:13:14;13.70;99.90
31991;DHT22;18508;49.386;8.370;2023-04-25T13:15:44;13.90;99.90
31991;DHT22;18508;49.386;8.370;2023-04-25T13:18:12;13.80;99.90
31991;DHT22;18508;49.386;8.370;2023-04-25T13:20:41;13.70;99.90
31991;DHT22;18508;49.386;8.370;2023-04-25T13:23:10;13.70;99.90
31991;DHT22;18508;49.386;8.370;2023-04-25T13:25:38;13.30;99.90
31991;DHT22;18508;49.386;8.370;2023-04-25T13:28:06;13.30;99.90
31991;DHT22;18508;49.386;8.370;2023-04-25T13:30:37;13.40;99.90
31991;DHT22;18508;49.386;8.370;2023-04-25T13:33:07;13.40;99.90
31991;DHT22;18508;49.386;8.370;2023-04-25T13:35:38;13.30;99.90
31991;DHT22;18508;49.386;8.370;2023-04-25T13:38:06;13.30;99.90
31991;DHT22;18508;49.386;8.370;2023-04-25T13:40:35;13.60;99.90
31991;DHT22;18508;49.386;8.370;2023-04-25T13:43:03;13.90;99.90
31991;DHT22;18508;49.386;8.370;2023-04-25T13:45:33;13.80;99.90
31991;DHT22;18508;49.386;8.370;2023-04-25T13:48:01;13.60;99.90
31991;DHT22;18508;49.386;8.370;2023-04-25T13:50:31;13.50;99.90
31991;DHT22;18508;49.386;8.370;2023-04-25T13:52:59;13.40;99.90
31991;DHT22;18508;49.386;8.370;2023-04-25T13:55:27;13.20;99.90
31991;DHT22;18508;49.386;8.370;2023-04-25T13:57:56;12.90;99.90
31991;DHT22;18508;49.386;8.370;2023-04-25T14:00:24;12.70;99.90
31991;DHT22;18508;49.386;8.370;2023-04-25T14:02:54;12.60;99.90
31991;DHT22;18508;49.386;8.370;2023-04-25T14:05:23;12.60;99.90
31991;DHT22;18508;49.386;8.370;2023-04-25T14:07:53;12.20;99.90
31991;DHT22;18508;49.386;8.370;2023-04-25T14:10:22;12.10;99.90
31991;DHT22;18508;49.386;8.370;2023-04-25T14:12:50;12.10;99.90
31991;DHT22;18508;49.386;8.370;2023-04-25T14:15:18;12.30;99.90
31991;DHT22;18508;49.386;8.370;2023-04-25T14:17:47;12.30;99.90
31991;DHT22;18508;49.386;8.370;2023-04-25T14:20:16;12.30;99.90
31991;DHT22;18508;49.386;8.370;2023-04-25T14:22:47;12.50;99.90
31991;DHT22;18508;49.386;8.370;2023-04-25T14:25:17;12.60;99.90
31991;DHT22;18508;49.386;8.370;2023-04-25T14:27:45;12.50;99.90
31991;DHT22;18508;49.386;8.370;2023-04-25T14:30:16;12.40;99.90
31991;DHT22;18508;49.386;8.370;2023-04-25T14:32:45;12.40;99.90
31991;DHT22;18508;49.386;8.370;2023-04-25T14:35:13;12.30;99.90
31991;DHT22;18508;49.386;8.370;2023-04-25T14:37:42;12.20;99.90
31991;DHT22;18508;49.386;8.370;2023-04-25T14:40:11;12.10;99.90
31991;DHT22;18508;49.386;8.370;2023-04-25T14:42:43;12.00;99.90
31991;DHT22;18508;49.386;8.370;2023-04-25T14:45:11;11.90;99.90
31991;DHT22;18508;49.386;8.370;2023-04-25T14:47:40;12.00;99.90
31991;DHT22;18508;49.386;8.370;2023-04-25T14:50:09;12.00;99.90
31991;DHT22;18508;49.386;8.370;2023-04-25T14:52:38;12.00;99.90
31991;DHT22;18508;49.386;8.370;2023-04-25T14:55:06;12.00;99.90
31991;DHT22;18508;49.386;8.370;2023-04-25T14:57:35;12.20;99.90
31991;DHT22;18508;49.386;8.370;2023-04-25T15:00:06;12.20;99.90
31991;DHT22;18508;49.386;8.370;2023-04-25T15:02:36;12.30;99.90
31991;DHT22;18508;49.386;8.370;2023-04-25T15:05:05;12.90;99.90
31991;DHT22;18508;49.386;8.370;2023-04-25T15:07:35;12.90;99.90
31991;DHT22;18508;49.386;8.370;2023-04-25T15:10:03;13.20;99.90
31991;DHT22;18508;49.386;8.370;2023-04-25T15:12:32;13.50;99.90
31991;DHT22;18508;49.386;8.370;2023-04-25T15:15:01;13.40;99.90
31991;DHT22;18508;49.386;8.370;2023-04-25T15:17:30;13.40;99.90
31991;DHT22;18508;49.386;8.370;2023-04-25T15:19:59;13.20;99.90
31991;DHT22;18508;49.386;8.370;2023-04-25T15:22:28;13.20;99.90
31991;DHT22;18508;49.386;8.370;2023-04-25T15:24:57;12.90;99.90
31991;DHT22;18508;49.386;8.370;2023-04-25T15:27:27;12.80;99.90
31991;DHT22;18508;49.386;8.370;2023-04-25T15:29:55;12.90;99.90
31991;DHT22;18508;49.386;8.370;2023-04-25T15:32:24;12.80;99.90
31991;DHT22;18508;49.386;8.370;2023-04-25T15:34:55;12.70;99.90
31991;DHT22;18508;49.386;8.370;2023-04-25T15:37:26;12.70;99.90
31991;DHT22;18508;49.386;8.370;2023-04-25T15:40:01;12.40;99.90
31991;DHT22;18508;49.386;8.370;2023-04-25T15:42:30;12.20;99.90
31991;DHT22;18508;49.386;8.370;2023-04-25T15:44:58;12.00;99.90
31991;DHT22;18508;49.386;8.370;2023-04-25T15:47:27;11.90;99.90
31991;DHT22;18508;49.386;8.370;2023-04-25T15:49:58;11.90;99.90
31991;DHT22;18508;49.386;8.370;2023-04-25T15:52:28;11.80;99.90
31991;DHT22;18508;49.386;8.370;2023-04-25T15:54:56;11.90;99.90
31991;DHT22;18508;49.386;8.370;2023-04-25T15:57:24;11.80;99.90